Time;durP1;ratioP1;P1;durP2;ratioP2;P2;SDS_P1;SDS_P2;PMS_P1;PMS_P2;Temp;Humidity;BMP_temperature;BMP_pressure;BME280_temperature;BME280_humidity;BME280_pressure;Samples;Min_cycle;Max_cycle;Signal;HPM_P1;HPM_P2
2022/04/11 00:00:51;;;;;;;12.13;5.43;;;;;;;-149.78;64.76;50162.44;4909398;29;20039;-73
2022/04/11 00:03:17;;;;;;;13.80;5.72;;;;;;;-149.78;64.23;50170.25;4917549;29;20558;-73
2022/04/11 00:05:43;;;;;;;10.65;5.47;;;;;;;-149.78;65.05;50205.47;4932050;29;20044;-73
2022/04/11 00:08:08;;;;;;;11.35;5.10;;;;;;;-149.78;65.33;50187.88;4917633;29;20484;-73
2022/04/11 00:10:34;;;;;;;12.82;6.15;;;;;;;-149.78;65.86;50189.81;4916187;29;20059;-73
2022/04/11 00:13:04;;;;;;;11.00;5.40;;;;;;;-149.78;65.76;50185.91;4932275;29;20047;-73
2022/04/11 00:15:33;;;;;;;13.35;6.03;;;;;;;-149.78;66.39;50201.56;4903440;29;20151;-74
2022/04/11 00:18:02;;;;;;;13.43;6.10;;;;;;;-149.78;66.45;50213.28;4881945;29;20064;-74
2022/04/11 00:20:29;;;;;;;14.32;6.57;;;;;;;-149.78;67.44;50170.25;4881432;29;20495;-73
2022/04/11 00:22:55;;;;;;;13.95;6.18;;;;;;;-149.78;66.55;50162.44;4898158;29;20043;-73
2022/04/11 00:25:21;;;;;;;13.90;6.47;;;;;;;-149.78;67.63;50178.09;4899231;29;20044;-71
2022/04/11 00:27:47;;;;;;;13.52;6.70;;;;;;;-149.78;66.86;50195.69;4916868;29;20048;-73
2022/04/11 00:30:13;;;;;;;16.38;6.68;;;;;;;-149.78;67.05;50158.53;4915833;29;20424;-73
2022/04/11 00:32:45;;;;;;;14.02;5.35;;;;;;;-149.78;67.23;50150.72;4931393;29;20043;-72
2022/04/11 00:35:11;;;;;;;13.35;5.30;;;;;;;-149.78;67.35;50189.81;4915915;29;20040;-72
2022/04/11 00:37:37;;;;;;;13.27;5.85;;;;;;;-149.78;67.30;50174.19;4915348;29;20064;-73
2022/04/11 00:40:05;;;;;;;18.40;7.00;;;;;;;-149.78;68.39;50174.19;4931095;29;20146;-72
2022/04/11 00:42:31;;;;;;;14.45;5.43;;;;;;;-149.78;68.08;50221.13;4916557;29;20510;-73
2022/04/11 00:44:57;;;;;;;8.98;4.60;;;;;;;-149.78;68.83;50182.00;4916716;29;20036;-72
2022/04/11 00:47:22;;;;;;;10.35;5.10;;;;;;;-149.78;69.45;50178.09;4917093;29;20484;-72
2022/04/11 00:49:48;;;;;;;10.65;5.05;;;;;;;-149.78;68.22;50185.91;4901811;29;20040;-72
2022/04/11 00:52:15;;;;;;;10.02;5.38;;;;;;;-149.78;70.79;50185.91;4881508;29;20047;-72
2022/04/11 00:54:42;;;;;;;15.77;6.00;;;;;;;-149.78;75.03;50174.19;4881153;29;20442;-72
2022/04/11 00:57:09;;;;;;;11.05;5.22;;;;;;;-149.78;79.37;50168.31;4898090;29;20036;-72
2022/04/11 00:59:35;;;;;;;10.35;5.28;;;;;;;-149.78;77.26;50174.19;4899547;29;20032;-72
2022/04/11 01:02:04;;;;;;;10.65;5.30;;;;;;;-149.78;75.23;50162.44;4915528;29;20510;-72
2022/04/11 01:04:30;;;;;;;11.55;5.80;;;;;;;-149.78;73.17;50170.25;4916661;29;20099;-72
2022/04/11 01:06:56;;;;;;;15.20;5.72;;;;;;;-149.78;78.53;50162.44;4915632;29;20043;-72
2022/04/11 01:09:26;;;;;;;14.90;5.32;;;;;;;-149.78;80.33;50180.03;4915512;29;20043;-73
2022/04/11 01:11:52;;;;;;;13.57;5.65;;;;;;;-149.78;83.63;50178.09;4915458;29;20059;-72
2022/04/11 01:14:20;;;;;;;11.13;5.53;;;;;;;-149.78;85.41;50185.91;4899757;29;20511;-72
2022/04/11 01:16:52;;;;;;;15.23;5.07;;;;;;;-149.78;84.22;50199.59;4916569;29;20063;-72
2022/04/11 01:19:20;;;;;;;10.52;5.20;;;;;;;-149.78;87.83;50166.34;4916392;29;20032;-72
2022/04/11 01:21:46;;;;;;;13.15;5.72;;;;;;;-149.78;84.92;50187.88;4884419;29;20380;-72
2022/04/11 01:24:13;;;;;;;10.10;5.22;;;;;;;-149.78;87.33;50170.25;4916496;29;20047;-73
2022/04/11 01:26:38;;;;;;;12.70;5.53;;;;;;;-149.78;93.30;50174.19;4915229;29;20039;-73
2022/04/11 01:29:04;;;;;;;13.70;4.82;;;;;;;-149.78;88.66;50185.91;4916031;29;20095;-72
2022/04/11 01:31:33;;;;;;;12.75;5.63;;;;;;;-149.78;91.03;50189.81;4915991;29;20074;-72
2022/04/11 01:33:58;;;;;;;17.17;5.57;;;;;;;-149.78;94.46;50209.38;4914974;29;20099;-72
2022/04/11 01:36:24;;;;;;;16.23;5.15;;;;;;;-149.78;99.58;50183.97;4916279;29;20127;-72
2022/04/11 01:38:50;;;;;;;10.65;4.88;;;;;;;-149.78;100.00;50185.91;4914964;29;20052;-72
2022/04/11 01:41:15;;;;;;;10.35;4.97;;;;;;;-149.78;96.47;50199.59;4914892;29;20204;-73
2022/04/11 01:43:41;;;;;;;10.50;4.97;;;;;;;-149.78;93.72;50205.47;4915779;29;20395;-72
2022/04/11 01:46:06;;;;;;;10.93;5.35;;;;;;;-149.78;86.54;50197.66;4897583;29;20127;-72
2022/04/11 01:48:32;;;;;;;12.80;4.63;;;;;;;-149.78;81.79;50185.91;4893679;29;20037;-72
2022/04/11 01:50:57;;;;;;;9.68;3.95;;;;;;;-149.78;75.62;50158.53;4896436;29;20115;-72
2022/04/11 01:53:23;;;;;;;12.57;4.00;;;;;;;-149.78;72.92;50197.66;4895731;29;20182;-73
2022/04/11 01:55:48;;;;;;;8.88;4.05;;;;;;;-149.78;74.87;50150.72;4895803;29;20041;-72
2022/04/11 01:58:15;;;;;;;7.85;3.92;;;;;;;-149.78;72.41;50154.63;4896768;29;20037;-72
2022/04/11 02:00:42;;;;;;;11.32;4.30;;;;;;;-149.78;71.83;50189.81;4899116;29;20128;-72
2022/04/11 02:03:09;;;;;;;11.15;4.00;;;;;;;-149.78;69.90;50162.44;4896404;29;20043;-72
2022/04/11 02:05:35;;;;;;;5.25;3.28;;;;;;;-149.78;68.67;50201.56;4890495;29;20415;-72
2022/04/11 02:08:01;;;;;;;13.18;4.00;;;;;;;-149.78;70.05;50166.34;4884997;29;20137;-72
2022/04/11 02:10:27;;;;;;;9.85;3.78;;;;;;;-149.78;68.99;50185.91;4895142;29;20048;-72
2022/04/11 02:12:54;;;;;;;9.70;4.25;;;;;;;-149.78;69.65;50201.56;4895604;29;20115;-72
2022/04/11 02:15:20;;;;;;;9.98;4.18;;;;;;;-149.78;69.61;50185.91;4895424;29;20385;-72
2022/04/11 02:17:50;;;;;;;8.88;3.50;;;;;;;-149.78;70.36;50201.56;4895378;29;20044;-72
2022/04/11 02:20:16;;;;;;;8.50;3.38;;;;;;;-149.78;71.79;50174.19;4896590;29;20065;-73
2022/04/11 02:22:48;;;;;;;7.78;3.97;;;;;;;-149.78;72.18;50197.66;4896586;29;20048;-72
2022/04/11 02:25:17;;;;;;;10.38;3.88;;;;;;;-149.78;73.17;50201.56;4895406;29;20037;-72
2022/04/11 02:27:43;;;;;;;10.73;4.22;;;;;;;-149.78;71.58;50189.81;4864436;29;20041;-72
2022/04/11 02:30:10;;;;;;;7.10;3.92;;;;;;;-149.78;75.96;50150.72;4895403;29;20041;-72
2022/04/11 02:32:38;;;;;;;10.32;3.83;;;;;;;-149.78;72.27;50166.34;4896441;29;20048;-72
2022/04/11 02:35:04;;;;;;;8.02;3.80;;;;;;;-149.78;75.90;50185.91;4894736;29;20028;-72
2022/04/11 02:37:30;;;;;;;8.55;3.67;;;;;;;-149.78;73.44;50197.66;4896395;29;20044;-72
2022/04/11 02:39:56;;;;;;;8.25;3.70;;;;;;;-149.78;73.06;50189.81;4863856;29;20152;-72
2022/04/11 02:42:25;;;;;;;11.95;4.45;;;;;;;-149.78;72.58;50146.81;4895447;29;20045;-72
2022/04/11 02:44:51;;;;;;;7.03;3.85;;;;;;;-149.78;73.41;50223.06;4896152;29;20044;-72
2022/04/11 02:47:18;;;;;;;10.98;4.55;;;;;;;-149.78;77.08;50189.81;4895516;29;20032;-72
2022/04/11 02:49:44;;;;;;;10.35;4.50;;;;;;;-149.78;79.68;50150.72;4894599;29;20594;-71
2022/04/11 02:52:10;;;;;;;9.45;4.68;;;;;;;-149.78;80.92;50197.66;4894520;29;20128;-72
2022/04/11 02:54:37;;;;;;;13.15;4.90;;;;;;;-149.78;83.45;50189.81;4893650;29;20041;-72
2022/04/11 02:57:03;;;;;;;9.52;5.07;;;;;;;-149.78;83.15;50211.34;4895635;29;20060;-72
2022/04/11 02:59:29;;;;;;;11.70;5.45;;;;;;;-149.78;84.43;50158.53;4897461;29;20048;-72
2022/04/11 03:01:56;;;;;;;8.55;4.88;;;;;;;-149.78;85.97;50189.81;4900117;29;20037;-72
2022/04/11 03:04:22;;;;;;;12.43;5.50;;;;;;;-149.78;86.20;50209.38;4900258;29;20105;-72
2022/04/11 03:06:48;;;;;;;14.52;5.50;;;;;;;-149.78;85.06;50185.91;4868340;29;20044;-72
2022/04/11 03:09:14;;;;;;;14.13;5.15;;;;;;;-149.78;85.09;50182.00;4898856;29;20092;-72
2022/04/11 03:11:40;;;;;;;10.35;4.93;;;;;;;-149.78;81.96;50213.28;4900066;29;20045;-72
2022/04/11 03:14:05;;;;;;;10.13;5.10;;;;;;;-149.78;80.47;50189.81;4900146;29;20040;-72
2022/04/11 03:16:31;;;;;;;10.15;4.88;;;;;;;-149.78;81.03;50183.97;4898818;29;20041;-72
2022/04/11 03:18:57;;;;;;;10.13;4.63;;;;;;;-149.78;82.09;50178.09;4898816;29;20075;-72
2022/04/11 03:21:23;;;;;;;8.63;4.32;;;;;;;-149.78;83.33;50197.66;4898583;29;20032;-72
2022/04/11 03:23:49;;;;;;;11.52;5.82;;;;;;;-149.78;84.92;50189.81;4899740;29;20044;-72
2022/04/11 03:26:14;;;;;;;11.40;4.82;;;;;;;-149.78;87.90;50225.03;4898591;29;20040;-72
2022/04/11 03:28:41;;;;;;;17.77;5.50;;;;;;;-149.78;90.52;50203.50;4897910;29;20075;-72
2022/04/11 03:31:06;;;;;;;15.63;5.65;;;;;;;-149.78;91.71;50183.97;4912300;29;20384;-72
2022/04/11 03:33:32;;;;;;;10.60;4.93;;;;;;;-149.78;92.39;50185.91;4916292;29;20411;-71
2022/04/11 03:35:57;;;;;;;12.60;5.28;;;;;;;-149.78;91.73;50189.81;4900861;29;20067;-72
2022/04/11 03:38:24;;;;;;;12.55;4.88;;;;;;;-149.78;91.53;50189.81;4917939;29;20114;-72
2022/04/11 03:40:49;;;;;;;13.25;5.40;;;;;;;-149.78;91.17;50197.66;4916764;29;20040;-71
2022/04/11 03:43:15;;;;;;;12.70;4.70;;;;;;;-149.78;91.94;50219.16;4916742;29;20468;-71
2022/04/11 03:45:40;;;;;;;9.98;4.82;;;;;;;-149.78;92.24;50232.84;4885477;29;20040;-71
2022/04/11 03:48:06;;;;;;;12.15;5.10;;;;;;;-149.78;90.97;50195.69;4916904;29;20036;-72
2022/04/11 03:50:32;;;;;;;15.45;5.07;;;;;;;-149.78;91.89;50185.91;4901554;29;20036;-71
2022/04/11 03:52:58;;;;;;;10.43;5.00;;;;;;;-149.78;93.24;50217.19;4917083;29;20411;-72
2022/04/11 03:55:24;;;;;;;11.50;5.03;;;;;;;-149.78;92.62;50164.41;4917183;29;20040;-71
2022/04/11 03:57:50;;;;;;;9.95;4.70;;;;;;;-149.78;92.51;50217.19;4917123;29;20044;-71
2022/04/11 04:00:17;;;;;;;10.30;5.13;;;;;;;-149.78;92.28;50217.19;4918015;29;20036;-72
2022/04/11 04:02:43;;;;;;;11.98;5.10;;;;;;;-149.78;93.48;50205.47;4917968;29;20074;-72
2022/04/11 04:05:09;;;;;;;13.27;5.05;;;;;;;-149.78;93.53;50183.97;4918195;29;20043;-72
2022/04/11 04:07:36;;;;;;;10.43;5.30;;;;;;;-149.78;93.38;50225.03;4918122;29;20400;-72
2022/04/11 04:10:05;;;;;;;12.25;5.93;;;;;;;-149.78;93.05;50185.91;4908084;29;20032;-72
2022/04/11 04:12:39;;;;;;;9.00;4.35;;;;;;;-149.78;94.42;50172.22;4883695;29;20047;-72
2022/04/11 04:15:05;;;;;;;11.18;5.13;;;;;;;-149.78;93.88;50187.88;4882228;29;20496;-72
2022/04/11 04:17:36;;;;;;;11.13;5.88;;;;;;;-149.78;96.37;50201.56;4897849;29;20040;-72
2022/04/11 04:20:06;;;;;;;9.32;4.55;;;;;;;-149.78;95.21;50189.81;4897886;29;20052;-72
2022/04/11 04:22:32;;;;;;;14.20;5.15;;;;;;;-149.78;95.68;50225.03;4898874;29;20037;-72
2022/04/11 04:24:57;;;;;;;10.65;4.65;;;;;;;-149.78;96.08;50234.81;4897787;29;20039;-72
2022/04/11 04:27:23;;;;;;;10.65;4.97;;;;;;;-149.78;97.21;50228.94;4898718;29;20036;-72
2022/04/11 04:29:49;;;;;;;13.05;4.65;;;;;;;-149.78;98.34;50209.38;4898747;29;20771;-73
2022/04/11 04:32:14;;;;;;;10.30;4.57;;;;;;;-149.78;100.00;50193.72;4897503;29;20029;-73
2022/04/11 04:34:41;;;;;;;13.45;5.00;;;;;;;-149.78;100.00;50185.91;4897219;29;20492;-72
2022/04/11 04:37:08;;;;;;;10.95;5.00;;;;;;;-149.78;100.00;50225.03;4910042;29;20047;-72
2022/04/11 04:39:34;;;;;;;15.30;4.93;;;;;;;-149.78;100.00;50201.56;4917126;29;20495;-72
2022/04/11 04:41:59;;;;;;;14.02;4.80;;;;;;;-149.78;100.00;50244.59;4916153;29;20044;-72
2022/04/11 04:44:25;;;;;;;12.10;5.78;;;;;;;-149.78;100.00;50209.38;4917392;29;20075;-73
2022/04/11 04:46:51;;;;;;;13.75;4.82;;;;;;;-149.78;100.00;50228.94;4900209;29;20040;-73
2022/04/11 04:49:17;;;;;;;11.27;5.15;;;;;;;-149.78;100.00;50225.03;4917257;29;20032;-73
2022/04/11 04:51:43;;;;;;;10.55;4.72;;;;;;;-149.78;100.00;50187.88;4916997;29;20484;-73
2022/04/11 04:54:08;;;;;;;9.43;4.90;;;;;;;-149.78;100.00;50228.94;4916076;29;20179;-73
2022/04/11 04:56:34;;;;;;;12.18;6.05;;;;;;;-149.78;100.00;50209.38;4917120;29;20067;-73
2022/04/11 04:58:59;;;;;;;10.15;5.20;;;;;;;-149.78;100.00;50201.56;4912804;29;20044;-72
2022/04/11 05:01:25;;;;;;;11.88;5.40;;;;;;;-149.78;100.00;50217.19;4898067;29;20044;-73
2022/04/11 05:03:50;;;;;;;15.48;5.80;;;;;;;-149.78;100.00;50225.03;4896798;29;20040;-73
2022/04/11 05:06:16;;;;;;;11.77;4.65;;;;;;;-149.78;100.00;50232.84;4898005;29;20029;-72
2022/04/11 05:08:41;;;;;;;10.40;5.28;;;;;;;-149.78;100.00;50213.28;4897820;29;20036;-73
2022/04/11 05:11:07;;;;;;;14.57;5.68;;;;;;;-149.78;100.00;50228.94;4896317;29;20119;-73
2022/04/11 05:13:32;;;;;;;11.55;5.18;;;;;;;-149.78;100.00;50236.75;4896817;29;20037;-72
2022/04/11 05:15:58;;;;;;;14.10;5.75;;;;;;;-149.78;100.00;50205.47;4897633;29;20074;-73
2022/04/11 05:18:24;;;;;;;21.35;6.13;;;;;;;-149.78;100.00;50205.47;4897862;29;20433;-73
2022/04/11 05:20:51;;;;;;;10.25;5.25;;;;;;;-149.78;100.00;50213.28;4897397;29;20425;-73
2022/04/11 05:23:18;;;;;;;13.63;5.22;;;;;;;-149.78;100.00;50256.31;4897037;29;20072;-73
2022/04/11 05:25:44;;;;;;;11.00;5.05;;;;;;;-149.78;100.00;50185.91;4896356;29;20039;-73
2022/04/11 05:28:09;;;;;;;13.80;5.68;;;;;;;-149.78;100.00;50244.59;4896572;29;20048;-73
2022/04/11 05:30:35;;;;;;;11.90;5.15;;;;;;;-149.78;100.00;50203.50;4881113;29;20032;-73
2022/04/11 05:33:02;;;;;;;14.02;5.38;;;;;;;-149.78;100.00;50238.72;4881157;29;20045;-73
2022/04/11 05:35:28;;;;;;;12.35;5.32;;;;;;;-149.78;100.00;50228.94;4896550;29;20037;-73
2022/04/11 05:37:53;;;;;;;13.55;5.70;;;;;;;-149.78;100.00;50225.03;4897764;29;20575;-73
2022/04/11 05:40:19;;;;;;;12.13;5.15;;;;;;;-149.78;100.00;50234.81;4896354;29;20056;-74
2022/04/11 05:42:46;;;;;;;13.52;5.10;;;;;;;-149.78;100.00;50209.38;4897514;29;20056;-73
2022/04/11 05:45:13;;;;;;;14.43;5.15;;;;;;;-149.78;100.00;50223.06;4896586;29;20433;-74
2022/04/11 05:47:38;;;;;;;9.30;5.00;;;;;;;-149.78;100.00;50217.19;4896270;29;20115;-74
2022/04/11 05:50:04;;;;;;;14.10;5.50;;;;;;;-149.78;100.00;50203.50;4897487;29;20468;-74
2022/04/11 05:52:30;;;;;;;14.40;5.82;;;;;;;-149.78;100.00;50197.66;4865572;29;20040;-74
2022/04/11 05:54:55;;;;;;;14.50;5.70;;;;;;;-149.78;100.00;50256.31;4881052;29;20062;-73
2022/04/11 05:57:21;;;;;;;10.38;5.35;;;;;;;-149.78;100.00;50166.34;4897512;29;20423;-73
2022/04/11 05:59:47;;;;;;;13.77;5.30;;;;;;;-149.78;100.00;50221.13;4905511;29;20510;-74
2022/04/11 06:02:12;;;;;;;14.73;5.43;;;;;;;-149.78;100.00;50217.19;4916436;29;20040;-73
2022/04/11 06:04:38;;;;;;;13.32;6.03;;;;;;;-149.78;100.00;50256.31;4915257;29;20476;-73
2022/04/11 06:07:07;;;;;;;18.00;6.40;;;;;;;-149.78;100.00;50225.03;4916321;29;20036;-73
2022/04/11 06:09:33;;;;;;;16.02;6.03;;;;;;;-149.78;100.00;50225.03;4909191;29;20119;-72
2022/04/11 06:11:58;;;;;;;17.23;7.10;;;;;;;-149.78;100.00;50221.13;4897398;29;20120;-72
2022/04/11 06:14:24;;;;;;;15.55;6.28;;;;;;;-149.78;100.00;50217.19;4896341;29;20143;-72
2022/04/11 06:16:50;;;;;;;18.42;6.70;;;;;;;-149.78;100.00;50201.56;4895871;29;20044;-73
2022/04/11 06:19:17;;;;;;;13.98;6.07;;;;;;;-149.78;100.00;50248.50;4896186;29;20540;-72
2022/04/11 06:21:43;;;;;;;15.75;6.68;;;;;;;-149.78;100.00;50244.59;4895827;29;20083;-73
2022/04/11 06:24:09;;;;;;;14.52;7.03;;;;;;;-149.78;100.00;50213.28;4897178;29;20421;-72
2022/04/11 06:26:34;;;;;;;17.35;6.93;;;;;;;-149.78;100.00;50232.84;4865018;29;20047;-72
2022/04/11 06:29:00;;;;;;;18.33;6.72;;;;;;;-149.78;100.00;50182.00;4897349;29;20056;-72
2022/04/11 06:31:25;;;;;;;16.65;7.43;;;;;;;-149.78;100.00;50178.09;4897126;29;20033;-73
2022/04/11 06:33:51;;;;;;;15.93;7.28;;;;;;;-149.78;100.00;50176.13;4881470;29;20043;-72
2022/04/11 06:36:16;;;;;;;17.77;8.63;;;;;;;-149.78;100.00;50183.97;4889270;29;20087;-72
2022/04/11 06:38:42;;;;;;;20.25;7.55;;;;;;;-149.78;100.00;50182.00;4918250;29;20492;-72
2022/04/11 06:41:08;;;;;;;24.27;8.02;;;;;;;-149.78;100.00;50217.19;4902679;29;20040;-73
2022/04/11 06:43:33;;;;;;;25.65;9.00;;;;;;;-149.78;100.00;50185.91;4919560;29;20036;-72
2022/04/11 06:45:59;;;;;;;20.33;8.57;;;;;;;-149.78;100.00;50183.97;4918131;29;20047;-73
2022/04/11 06:48:25;;;;;;;18.27;8.13;;;;;;;-149.78;100.00;50205.47;4901791;29;20040;-72
2022/04/11 06:50:52;;;;;;;19.02;8.23;;;;;;;-149.78;100.00;50213.28;4917578;29;20032;-72
2022/04/11 06:53:19;;;;;;;21.70;10.18;;;;;;;-149.78;100.00;50166.34;4917697;29;20040;-72
2022/04/11 06:55:47;;;;;;;23.08;9.07;;;;;;;-149.78;100.00;50199.59;4901605;29;20067;-72
2022/04/11 06:58:16;;;;;;;24.67;10.25;;;;;;;-149.78;100.00;50207.44;4917589;29;20063;-72
2022/04/11 07:00:46;;;;;;;18.77;8.73;;;;;;;-149.78;100.00;50185.91;4917083;29;20032;-72
2022/04/11 07:03:11;;;;;;;20.02;8.95;;;;;;;-149.78;100.00;50182.00;4917681;29;20353;-72
2022/04/11 07:05:38;;;;;;;26.73;9.80;;;;;;;-149.78;100.00;50189.81;4919117;29;20039;-73
2022/04/11 07:08:04;;;;;;;21.15;9.40;;;;;;;-149.78;100.00;50209.38;4917952;29;20086;-73
2022/04/11 07:10:31;;;;;;;26.50;9.40;;;;;;;-149.78;100.00;50217.19;4904600;29;20032;-73
2022/04/11 07:12:58;;;;;;;18.63;9.25;;;;;;;-149.78;100.00;50213.28;4899079;29;20124;-72
2022/04/11 07:15:24;;;;;;;21.00;9.60;;;;;;;-149.78;100.00;50201.56;4899801;29;20124;-73
2022/04/11 07:17:49;;;;;;;21.17;9.80;;;;;;;-149.78;100.00;50174.19;4898491;29;20130;-73
2022/04/11 07:20:15;;;;;;;23.67;10.55;;;;;;;-149.78;100.00;50187.88;4883065;29;20084;-73
2022/04/11 07:22:41;;;;;;;22.10;10.73;;;;;;;-149.78;100.00;50185.91;4899740;29;20041;-73
2022/04/11 07:25:08;;;;;;;21.38;9.95;;;;;;;-149.78;100.00;50158.53;4883437;29;20036;-73
2022/04/11 07:27:33;;;;;;;23.13;9.45;;;;;;;-149.78;100.00;50170.25;4900017;29;20123;-73
2022/04/11 07:29:59;;;;;;;23.48;9.98;;;;;;;-149.78;100.00;50146.81;4899681;29;20051;-73
2022/04/11 07:32:24;;;;;;;24.75;9.40;;;;;;;-149.78;100.00;50170.25;4899745;29;20063;-73
2022/04/11 07:34:50;;;;;;;24.65;10.68;;;;;;;-149.78;100.00;50193.72;4899741;29;20045;-72
2022/04/11 07:37:15;;;;;;;27.08;12.57;;;;;;;-149.78;100.00;50166.34;4912396;29;20048;-72
2022/04/11 07:39:42;;;;;;;25.45;11.15;;;;;;;-149.78;100.00;50138.97;4917114;29;20044;-72
2022/04/11 07:42:10;;;;;;;22.27;10.75;;;;;;;-149.78;100.00;50154.63;4918546;29;20044;-73
2022/04/11 07:44:35;;;;;;;22.88;10.98;;;;;;;-149.78;100.00;50107.69;4917012;29;20032;-72
2022/04/11 07:47:01;;;;;;;22.67;11.45;;;;;;;-149.78;98.04;50174.19;4916781;29;20032;-73
2022/04/11 07:49:27;;;;;;;27.23;12.00;;;;;;;-149.78;81.38;50133.09;4917404;29;20436;-73
2022/04/11 07:51:53;;;;;;;24.48;11.43;;;;;;;-149.78;76.39;50119.41;4917175;29;20434;-73
2022/04/11 07:54:19;;;;;;;22.63;11.25;;;;;;;-149.78;74.18;50119.41;4918299;29;20040;-73
2022/04/11 07:56:45;;;;;;;24.30;12.57;;;;;;;-149.78;74.57;50138.97;4901247;29;20518;-73
2022/04/11 07:59:10;;;;;;;21.75;10.95;;;;;;;-149.78;67.06;50074.44;4918215;29;20495;-73
2022/04/11 08:01:36;;;;;;;21.42;10.57;;;;;;;-149.78;64.76;50107.69;4917039;29;20645;-73
2022/04/11 08:04:02;;;;;;;21.65;11.05;;;;;;;-149.78;63.41;50084.22;4917134;29;20439;-72
2022/04/11 08:06:28;;;;;;;21.63;10.60;;;;;;;-149.78;61.39;50043.16;4916832;29;20082;-72
2022/04/11 08:08:53;;;;;;;20.30;10.43;;;;;;;-149.78;56.86;50052.94;4917352;29;20468;-72
2022/04/11 08:11:19;;;;;;;18.20;9.48;;;;;;;-149.78;56.37;50056.84;4882543;29;20385;-72
2022/04/11 08:13:46;;;;;;;20.95;10.32;;;;;;;-149.78;56.93;50064.66;4898881;29;20428;-72
2022/04/11 08:16:12;;;;;;;20.85;10.50;;;;;;;-149.78;58.28;50029.47;4897820;29;20131;-71
2022/04/11 08:18:38;;;;;;;21.77;10.73;;;;;;;-149.78;58.40;50064.66;4898840;29;20040;-72
2022/04/11 08:21:04;;;;;;;20.98;9.48;;;;;;;-149.78;59.97;50086.19;4897626;29;20523;-72
2022/04/11 08:23:30;;;;;;;23.52;10.18;;;;;;;-149.78;59.01;50072.50;4897564;29;20036;-72
2022/04/11 08:25:56;;;;;;;16.70;9.40;;;;;;;-149.78;62.29;50056.84;4898963;29;20051;-73
2022/04/11 08:28:23;;;;;;;22.00;10.52;;;;;;;-149.78;63.35;50103.78;4898852;29;20036;-72
2022/04/11 08:30:50;;;;;;;22.27;9.80;;;;;;;-149.78;61.62;50056.84;4898689;29;20107;-72
2022/04/11 08:33:16;;;;;;;22.20;10.18;;;;;;;-149.78;63.32;50135.06;4882071;29;20048;-72
2022/04/11 08:35:42;;;;;;;24.08;10.70;;;;;;;-149.78;62.66;50088.13;4899209;29;20040;-71
2022/04/11 08:38:08;;;;;;;19.85;9.68;;;;;;;-149.78;64.17;50131.16;4916286;29;20051;-73
2022/04/11 08:40:35;;;;;;;18.92;9.43;;;;;;;-149.78;63.45;50097.91;4916222;29;20059;-73
2022/04/11 08:43:02;;;;;;;19.15;9.25;;;;;;;-149.78;66.71;50105.72;4915239;29;20119;-71
2022/04/11 08:45:28;;;;;;;22.55;10.98;;;;;;;-149.78;70.22;50125.28;4915677;29;20063;-69
2022/04/11 08:47:56;;;;;;;23.00;10.00;;;;;;;-149.78;75.64;50150.72;4917145;29;20507;-70
2022/04/11 08:50:23;;;;;;;23.90;10.68;;;;;;;-149.78;76.01;50148.75;4915981;29;20052;-71
2022/04/11 08:52:50;;;;;;;21.58;10.27;;;;;;;-149.78;74.12;50127.25;4916925;29;20054;-69
2022/04/11 08:55:16;;;;;;;19.60;9.90;;;;;;;-149.78;73.19;50121.38;4915965;29;20040;-72
2022/04/11 08:57:42;;;;;;;20.38;10.02;;;;;;;-149.78;72.10;50119.41;4883714;29;20368;-70
2022/04/11 09:00:14;;;;;;;18.80;9.77;;;;;;;-149.78;66.66;50107.69;4915794;29;20038;-76
2022/04/11 09:02:44;;;;;;;22.23;9.60;;;;;;;-149.78;67.15;50131.16;4916500;29;20046;-74
2022/04/11 09:05:12;;;;;;;17.17;9.40;;;;;;;-149.78;70.03;50107.69;4917594;29;20087;-74
2022/04/11 09:07:50;;;;;;;16.80;9.23;;;;;;;-149.78;72.42;50142.88;4916448;29;20028;-74
2022/04/11 09:10:21;;;;;;;20.15;9.38;;;;;;;-149.78;72.63;50146.81;4917751;29;20044;-73
2022/04/11 09:12:54;;;;;;;20.65;9.15;;;;;;;-149.78;73.90;50121.38;4917562;29;20043;-74
2022/04/11 09:15:23;;;;;;;16.55;8.73;;;;;;;-149.78;73.65;50135.06;4917605;29;20035;-74
2022/04/11 09:17:49;;;;;;;19.58;8.68;;;;;;;-149.78;72.38;50131.16;4917664;29;20040;-74
2022/04/11 09:20:18;;;;;;;17.05;8.82;;;;;;;-149.78;73.72;50103.78;4916173;29;20036;-74
2022/04/11 09:22:44;;;;;;;18.42;8.60;;;;;;;-149.78;69.73;50107.69;4917238;29;20338;-74
2022/04/11 09:25:19;;;;;;;16.77;7.70;;;;;;;-149.78;68.33;50111.59;4916229;29;20036;-73
2022/04/11 09:28:02;;;;;;;16.48;7.70;;;;;;;-149.78;68.44;50142.88;4916949;29;20829;-71
2022/04/11 09:30:31;;;;;;;14.63;8.10;;;;;;;-149.78;68.69;50148.75;4915563;29;20044;-71
2022/04/11 09:32:57;;;;;;;17.27;7.70;;;;;;;-149.78;69.46;50111.59;4916626;29;20048;-71
2022/04/11 09:35:24;;;;;;;16.05;8.13;;;;;;;-149.78;67.62;50127.25;4899732;29;20036;-70
2022/04/11 09:38:10;;;;;;;16.83;8.32;;;;;;;-149.78;68.41;50103.78;4916392;29;20048;-70
2022/04/11 09:40:50;;;;;;;19.13;8.55;;;;;;;-149.78;68.28;50138.97;4916402;29;20464;-70
2022/04/11 09:43:17;;;;;;;17.55;8.85;;;;;;;-149.78;67.99;50115.50;4916569;29;20111;-70
2022/04/11 09:45:49;;;;;;;21.83;8.60;;;;;;;-149.78;67.17;50127.25;4915187;29;20048;-70
2022/04/11 09:48:22;;;;;;;14.40;7.85;;;;;;;-149.78;67.04;50150.72;4916474;29;20091;-70
2022/04/11 09:50:49;;;;;;;18.38;7.63;;;;;;;-149.78;66.72;50131.16;4915058;29;20532;-70
2022/04/11 09:53:18;;;;;;;12.77;7.25;;;;;;;-149.78;63.79;50084.22;4916401;29;20127;-70
2022/04/11 09:55:50;;;;;;;13.35;7.30;;;;;;;-149.78;64.55;50115.50;4915122;29;20499;-71
2022/04/11 09:58:21;;;;;;;14.85;7.15;;;;;;;-149.78;63.06;50142.88;4916359;29;20107;-71
2022/04/11 10:00:49;;;;;;;15.43;7.00;;;;;;;-149.78;62.05;50111.59;4916017;29;20532;-69
2022/04/11 10:03:15;;;;;;;13.73;6.63;;;;;;;-149.78;62.63;50115.50;4916354;29;20444;-70
2022/04/11 10:05:42;;;;;;;15.93;6.68;;;;;;;-149.78;61.97;50113.56;4916260;29;20169;-69
2022/04/11 10:08:12;;;;;;;16.58;7.50;;;;;;;-149.78;62.09;50115.50;4916595;29;20050;-71
2022/04/11 10:10:39;;;;;;;14.75;6.78;;;;;;;-149.78;61.80;50094.00;4904642;29;20119;-69
2022/04/11 10:13:07;;;;;;;14.55;7.40;;;;;;;-149.78;59.14;50095.94;4900088;29;20033;-70
2022/04/11 10:15:33;;;;;;;14.45;7.25;;;;;;;-149.78;56.75;50060.75;4901107;29;20032;-69
2022/04/11 10:17:58;;;;;;;13.23;7.43;;;;;;;-149.78;55.34;50043.16;4901117;29;20071;-70
2022/04/11 10:20:28;;;;;;;13.73;7.65;;;;;;;-149.78;54.25;50095.94;4884350;29;20424;-70
2022/04/11 10:23:22;;;;;;;14.50;7.63;;;;;;;-149.78;54.17;50049.03;4901082;29;20084;-70
2022/04/11 10:25:50;;;;;;;15.38;7.82;;;;;;;-149.78;54.13;50049.03;4900833;29;20519;-70
2022/04/11 10:28:24;;;;;;;15.13;7.45;;;;;;;-149.78;52.30;50064.66;4901001;29;20041;-70
2022/04/11 10:31:09;;;;;;;12.57;7.60;;;;;;;-149.78;52.11;50041.19;4900967;29;20135;-70
2022/04/11 10:33:48;;;;;;;16.60;7.30;;;;;;;-149.78;52.47;50064.66;4899629;29;20036;-70
2022/04/11 10:36:54;;;;;;;19.13;7.82;;;;;;;-149.78;50.35;50064.66;4905442;29;20032;-69
2022/04/11 10:39:22;;;;;;;15.52;7.43;;;;;;;-149.78;50.25;50041.19;4889933;29;20127;-70
2022/04/11 10:41:54;;;;;;;14.02;7.65;;;;;;;-149.78;51.58;50103.78;4917932;29;20036;-69
2022/04/11 10:44:58;;;;;;;15.48;7.85;;;;;;;-149.78;51.02;50013.81;4918353;29;20447;-70
2022/04/11 10:47:31;;;;;;;14.18;7.95;;;;;;;-149.78;49.42;50025.56;4910169;29;20056;-69
2022/04/11 10:49:57;;;;;;;13.10;7.05;;;;;;;-149.78;50.79;50025.56;4919293;29;20043;-70
2022/04/11 10:52:31;;;;;;;16.15;8.70;;;;;;;-149.78;52.24;50099.88;4919409;29;20028;-69
2022/04/11 10:55:19;;;;;;;14.32;8.43;;;;;;;-149.78;52.45;50045.09;4919485;29;20032;-70
2022/04/11 10:57:51;;;;;;;15.35;6.90;;;;;;;-149.78;51.61;50074.44;4918186;29;20047;-69
2022/04/11 11:00:27;;;;;;;17.05;7.72;;;;;;;-149.78;51.70;50041.19;4919384;29;20472;-70
2022/04/11 11:02:53;;;;;;;13.18;7.55;;;;;;;-149.78;51.88;50099.88;4919126;29;20035;-69
2022/04/11 11:05:37;;;;;;;15.05;7.65;;;;;;;-149.78;50.74;50056.84;4919240;29;20039;-69
2022/04/11 11:08:09;;;;;;;14.07;7.90;;;;;;;-149.78;51.05;50060.75;4919235;29;20033;-69